sensor_id;sensor_type;location;lat;lon;timestamp;P1;durP1;ratioP1;P2;durP2;ratioP2
61025;SDS011;46911;32.650;-16.902;2022-10-22T00:01:43;10.73;;;1.83;;
61025;SDS011;46911;32.650;-16.902;2022-10-22T00:03:45;17.95;;;1.77;;
61025;SDS011;46911;32.650;-16.902;2022-10-22T00:05:46;15.73;;;2.92;;
61025;SDS011;46911;32.650;-16.902;2022-10-22T00:07:52;7.75;;;1.65;;
61025;SDS011;46911;32.650;-16.902;2022-10-22T00:09:53;16.08;;;1.52;;
61025;SDS011;46911;32.650;-16.902;2022-10-22T00:11:54;13.00;;;1.30;;
61025;SDS011;46911;32.650;-16.902;2022-10-22T00:13:54;13.77;;;1.52;;
61025;SDS011;46911;32.650;-16.902;2022-10-22T00:16:01;11.50;;;1.60;;
61025;SDS011;46911;32.650;-16.902;2022-10-22T00:18:04;15.93;;;1.80;;
61025;SDS011;46911;32.650;-16.902;2022-10-22T00:20:07;13.50;;;1.38;;
61025;SDS011;46911;32.650;-16.902;2022-10-22T00:22:09;18.98;;;1.70;;
61025;SDS011;46911;32.650;-16.902;2022-10-22T00:24:11;12.45;;;1.52;;
61025;SDS011;46911;32.650;-16.902;2022-10-22T00:26:12;12.75;;;1.75;;
61025;SDS011;46911;32.650;-16.902;2022-10-22T00:28:13;11.10;;;1.88;;
61025;SDS011;46911;32.650;-16.902;2022-10-22T00:30:14;17.15;;;1.52;;
61025;SDS011;46911;32.650;-16.902;2022-10-22T00:32:18;21.00;;;1.80;;
61025;SDS011;46911;32.650;-16.902;2022-10-22T00:34:22;6.68;;;1.70;;
61025;SDS011;46911;32.650;-16.902;2022-10-22T00:36:23;12.20;;;1.42;;
61025;SDS011;46911;32.650;-16.902;2022-10-22T00:38:26;13.93;;;1.77;;
61025;SDS011;46911;32.650;-16.902;2022-10-22T00:40:27;20.38;;;2.25;;
61025;SDS011;46911;32.650;-16.902;2022-10-22T00:42:31;12.52;;;1.50;;
61025;SDS011;46911;32.650;-16.902;2022-10-22T00:49:15;13.02;;;1.70;;
61025;SDS011;46911;32.650;-16.902;2022-10-22T00:51:16;13.38;;;1.65;;
61025;SDS011;46911;32.650;-16.902;2022-10-22T00:53:23;13.23;;;1.67;;
61025;SDS011;46911;32.650;-16.902;2022-10-22T00:55:42;10.40;;;1.63;;
61025;SDS011;46911;32.650;-16.902;2022-10-22T00:57:48;16.25;;;1.60;;
61025;SDS011;46911;32.650;-16.902;2022-10-22T00:59:54;3.85;;;1.42;;
61025;SDS011;46911;32.650;-16.902;2022-10-22T01:01:56;12.18;;;1.27;;
61025;SDS011;46911;32.650;-16.902;2022-10-22T01:04:00;25.08;;;1.55;;
61025;SDS011;46911;32.650;-16.902;2022-10-22T01:06:02;9.65;;;2.55;;
61025;SDS011;46911;32.650;-16.902;2022-10-22T01:08:04;11.35;;;1.40;;
61025;SDS011;46911;32.650;-16.902;2022-10-22T01:19:33;9.88;;;1.73;;
61025;SDS011;46911;32.650;-16.902;2022-10-22T01:21:50;18.70;;;1.67;;
61025;SDS011;46911;32.650;-16.902;2022-10-22T01:24:14;10.65;;;1.45;;
61025;SDS011;46911;32.650;-16.902;2022-10-22T01:30:54;8.02;;;1.45;;
61025;SDS011;46911;32.650;-16.902;2022-10-22T01:32:58;4.10;;;1.05;;
61025;SDS011;46911;32.650;-16.902;2022-10-22T01:35:06;10.68;;;1.30;;
61025;SDS011;46911;32.650;-16.902;2022-10-22T01:37:13;7.97;;;0.88;;
61025;SDS011;46911;32.650;-16.902;2022-10-22T01:39:17;11.60;;;1.88;;
61025;SDS011;46911;32.650;-16.902;2022-10-22T01:41:19;7.63;;;2.20;;
61025;SDS011;46911;32.650;-16.902;2022-10-22T01:43:23;3.58;;;1.00;;
61025;SDS011;46911;32.650;-16.902;2022-10-22T01:45:24;8.15;;;0.90;;
61025;SDS011;46911;32.650;-16.902;2022-10-22T01:56:56;7.38;;;1.83;;
61025;SDS011;46911;32.650;-16.902;2022-10-22T02:01:40;4.00;;;1.50;;
61025;SDS011;46911;32.650;-16.902;2022-10-22T02:04:14;8.38;;;1.25;;
61025;SDS011;46911;32.650;-16.902;2022-10-22T02:06:20;6.18;;;0.65;;
61025;SDS011;46911;32.650;-16.902;2022-10-22T02:08:26;7.97;;;0.85;;
61025;SDS011;46911;32.650;-16.902;2022-10-22T02:10:30;13.52;;;0.80;;
61025;SDS011;46911;32.650;-16.902;2022-10-22T02:12:32;7.68;;;0.63;;
61025;SDS011;46911;32.650;-16.902;2022-10-22T02:14:35;10.18;;;0.88;;
61025;SDS011;46911;32.650;-16.902;2022-10-22T02:16:40;12.25;;;0.52;;
61025;SDS011;46911;32.650;-16.902;2022-10-22T02:18:45;13.95;;;1.13;;
61025;SDS011;46911;32.650;-16.902;2022-10-22T02:20:50;11.85;;;0.65;;
61025;SDS011;46911;32.650;-16.902;2022-10-22T02:22:51;9.73;;;0.82;;
61025;SDS011;46911;32.650;-16.902;2022-10-22T02:24:55;7.45;;;0.68;;
61025;SDS011;46911;32.650;-16.902;2022-10-22T02:27:09;4.50;;;0.50;;
61025;SDS011;46911;32.650;-16.902;2022-10-22T02:29:23;6.95;;;1.42;;
61025;SDS011;46911;32.650;-16.902;2022-10-22T02:31:34;3.50;;;1.10;;
61025;SDS011;46911;32.650;-16.902;2022-10-22T02:33:40;5.68;;;0.80;;
61025;SDS011;46911;32.650;-16.902;2022-10-22T02:35:45;9.23;;;1.25;;
61025;SDS011;46911;32.650;-16.902;2022-10-22T02:37:46;8.05;;;0.80;;
61025;SDS011;46911;32.650;-16.902;2022-10-22T02:39:54;6.63;;;0.38;;
61025;SDS011;46911;32.650;-16.902;2022-10-22T02:41:57;4.35;;;0.52;;
61025;SDS011;46911;32.650;-16.902;2022-10-22T02:44:06;6.88;;;0.70;;
61025;SDS011;46911;32.650;-16.902;2022-10-22T02:46:09;10.25;;;1.42;;
61025;SDS011;46911;32.650;-16.902;2022-10-22T02:48:12;7.53;;;0.60;;
61025;SDS011;46911;32.650;-16.902;2022-10-22T02:50:15;6.63;;;0.57;;
61025;SDS011;46911;32.650;-16.902;2022-10-22T02:52:16;8.00;;;0.50;;
61025;SDS011;46911;32.650;-16.902;2022-10-22T02:54:17;5.90;;;0.60;;
61025;SDS011;46911;32.650;-16.902;2022-10-22T02:56:21;5.57;;;0.40;;
61025;SDS011;46911;32.650;-16.902;2022-10-22T02:58:22;5.57;;;0.40;;
61025;SDS011;46911;32.650;-16.902;2022-10-22T03:00:23;5.80;;;0.70;;
61025;SDS011;46911;32.650;-16.902;2022-10-22T03:02:26;5.88;;;0.40;;
61025;SDS011;46911;32.650;-16.902;2022-10-22T03:04:27;3.80;;;0.47;;
61025;SDS011;46911;32.650;-16.902;2022-10-22T03:06:30;12.75;;;0.52;;
61025;SDS011;46911;32.650;-16.902;2022-10-22T03:08:31;8.77;;;0.60;;
61025;SDS011;46911;32.650;-16.902;2022-10-22T03:10:32;4.90;;;0.32;;
61025;SDS011;46911;32.650;-16.902;2022-10-22T03:12:36;11.15;;;1.10;;
61025;SDS011;46911;32.650;-16.902;2022-10-22T03:14:39;6.60;;;0.40;;
61025;SDS011;46911;32.650;-16.902;2022-10-22T03:16:40;2.47;;;0.47;;
61025;SDS011;46911;32.650;-16.902;2022-10-22T03:18:40;19.02;;;0.90;;
61025;SDS011;46911;32.650;-16.902;2022-10-22T03:20:41;4.38;;;0.40;;
61025;SDS011;46911;32.650;-16.902;2022-10-22T03:22:45;10.52;;;0.63;;
61025;SDS011;46911;32.650;-16.902;2022-10-22T03:24:49;9.68;;;0.80;;
61025;SDS011;46911;32.650;-16.902;2022-10-22T03:26:52;4.60;;;0.50;;
61025;SDS011;46911;32.650;-16.902;2022-10-22T03:28:54;5.35;;;0.68;;
61025;SDS011;46911;32.650;-16.902;2022-10-22T03:30:55;4.13;;;0.38;;
61025;SDS011;46911;32.650;-16.902;2022-10-22T03:32:59;12.13;;;0.50;;
61025;SDS011;46911;32.650;-16.902;2022-10-22T03:34:59;9.98;;;0.52;;
61025;SDS011;46911;32.650;-16.902;2022-10-22T03:37:00;5.22;;;0.70;;
61025;SDS011;46911;32.650;-16.902;2022-10-22T03:39:02;8.68;;;0.40;;
61025;SDS011;46911;32.650;-16.902;2022-10-22T03:41:04;4.45;;;0.40;;
61025;SDS011;46911;32.650;-16.902;2022-10-22T03:43:07;4.03;;;0.47;;
61025;SDS011;46911;32.650;-16.902;2022-10-22T03:45:16;3.97;;;0.50;;
61025;SDS011;46911;32.650;-16.902;2022-10-22T03:47:19;13.25;;;1.17;;
61025;SDS011;46911;32.650;-16.902;2022-10-22T03:49:23;13.85;;;0.88;;
61025;SDS011;46911;32.650;-16.902;2022-10-22T03:51:27;7.03;;;0.60;;
61025;SDS011;46911;32.650;-16.902;2022-10-22T03:53:30;5.72;;;0.63;;
61025;SDS011;46911;32.650;-16.902;2022-10-22T03:55:31;2.55;;;0.38;;
61025;SDS011;46911;32.650;-16.902;2022-10-22T03:57:35;12.10;;;0.88;;
61025;SDS011;46911;32.650;-16.902;2022-10-22T03:59:39;5.00;;;0.45;;
61025;SDS011;46911;32.650;-16.902;2022-10-22T04:01:49;2.97;;;0.20;;
61025;SDS011;46911;32.650;-16.902;2022-10-22T04:03:50;16.92;;;2.22;;
61025;SDS011;46911;32.650;-16.902;2022-10-22T04:05:53;2.60;;;0.30;;
61025;SDS011;46911;32.650;-16.902;2022-10-22T04:07:54;4.93;;;0.40;;
61025;SDS011;46911;32.650;-16.902;2022-10-22T04:09:57;4.80;;;0.52;;
61025;SDS011;46911;32.650;-16.902;2022-10-22T04:12:00;14.07;;;1.48;;
61025;SDS011;46911;32.650;-16.902;2022-10-22T04:14:01;5.35;;;0.50;;
61025;SDS011;46911;32.650;-16.902;2022-10-22T04:16:16;5.57;;;0.50;;
61025;SDS011;46911;32.650;-16.902;2022-10-22T04:18:21;8.98;;;0.50;;
61025;SDS011;46911;32.650;-16.902;2022-10-22T04:20:23;0.57;;;0.25;;
61025;SDS011;46911;32.650;-16.902;2022-10-22T04:22:26;8.90;;;0.50;;
61025;SDS011;46911;32.650;-16.902;2022-10-22T04:24:31;8.38;;;0.52;;
61025;SDS011;46911;32.650;-16.902;2022-10-22T04:26:37;1.35;;;0.38;;
61025;SDS011;46911;32.650;-16.902;2022-10-22T04:28:38;9.50;;;0.45;;
61025;SDS011;46911;32.650;-16.902;2022-10-22T04:30:41;9.75;;;0.47;;
61025;SDS011;46911;32.650;-16.902;2022-10-22T04:32:44;4.47;;;1.10;;
61025;SDS011;46911;32.650;-16.902;2022-10-22T04:34:48;4.25;;;1.05;;
61025;SDS011;46911;32.650;-16.902;2022-10-22T04:36:51;1.92;;;0.45;;
61025;SDS011;46911;32.650;-16.902;2022-10-22T04:38:56;3.63;;;0.40;;
61025;SDS011;46911;32.650;-16.902;2022-10-22T04:41:07;5.22;;;0.30;;
61025;SDS011;46911;32.650;-16.902;2022-10-22T04:43:13;10.90;;;0.95;;
61025;SDS011;46911;32.650;-16.902;2022-10-22T04:45:14;3.53;;;0.20;;
61025;SDS011;46911;32.650;-16.902;2022-10-22T04:47:18;7.43;;;0.43;;
61025;SDS011;46911;32.650;-16.902;2022-10-22T04:49:19;7.65;;;2.17;;
61025;SDS011;46911;32.650;-16.902;2022-10-22T04:51:25;5.47;;;0.80;;
61025;SDS011;46911;32.650;-16.902;2022-10-22T04:53:26;3.45;;;0.50;;
61025;SDS011;46911;32.650;-16.902;2022-10-22T04:55:27;3.78;;;0.32;;
61025;SDS011;46911;32.650;-16.902;2022-10-22T04:57:29;1.55;;;0.30;;
61025;SDS011;46911;32.650;-16.902;2022-10-22T04:59:30;5.40;;;0.43;;
61025;SDS011;46911;32.650;-16.902;2022-10-22T05:01:32;4.72;;;0.43;;
61025;SDS011;46911;32.650;-16.902;2022-10-22T05:03:37;3.75;;;0.32;;
61025;SDS011;46911;32.650;-16.902;2022-10-22T05:05:38;3.92;;;0.30;;
61025;SDS011;46911;32.650;-16.902;2022-10-22T05:07:38;9.25;;;0.90;;
61025;SDS011;46911;32.650;-16.902;2022-10-22T05:09:42;6.20;;;0.35;;
61025;SDS011;46911;32.650;-16.902;2022-10-22T05:11:48;3.45;;;0.47;;
61025;SDS011;46911;32.650;-16.902;2022-10-22T05:13:50;11.13;;;0.52;;
61025;SDS011;46911;32.650;-16.902;2022-10-22T05:15:51;4.18;;;0.63;;
61025;SDS011;46911;32.650;-16.902;2022-10-22T05:17:52;5.70;;;0.57;;
61025;SDS011;46911;32.650;-16.902;2022-10-22T05:19:55;0.77;;;0.20;;
61025;SDS011;46911;32.650;-16.902;2022-10-22T05:21:57;7.18;;;1.15;;
61025;SDS011;46911;32.650;-16.902;2022-10-22T05:24:05;6.80;;;0.40;;
61025;SDS011;46911;32.650;-16.902;2022-10-22T05:26:12;6.78;;;0.70;;
61025;SDS011;46911;32.650;-16.902;2022-10-22T05:28:14;3.40;;;0.20;;
61025;SDS011;46911;32.650;-16.902;2022-10-22T05:30:19;7.28;;;0.47;;
61025;SDS011;46911;32.650;-16.902;2022-10-22T05:32:22;13.35;;;0.70;;
61025;SDS011;46911;32.650;-16.902;2022-10-22T05:34:23;4.00;;;0.35;;
61025;SDS011;46911;32.650;-16.902;2022-10-22T05:36:25;4.72;;;0.55;;
61025;SDS011;46911;32.650;-16.902;2022-10-22T05:38:31;6.85;;;0.68;;
61025;SDS011;46911;32.650;-16.902;2022-10-22T05:40:33;4.47;;;0.70;;
61025;SDS011;46911;32.650;-16.902;2022-10-22T05:42:34;0.82;;;0.38;;
61025;SDS011;46911;32.650;-16.902;2022-10-22T05:44:35;3.03;;;0.60;;
61025;SDS011;46911;32.650;-16.902;2022-10-22T05:46:36;4.80;;;0.57;;
61025;SDS011;46911;32.650;-16.902;2022-10-22T05:48:37;7.85;;;0.70;;
61025;SDS011;46911;32.650;-16.902;2022-10-22T05:50:40;10.98;;;0.60;;
61025;SDS011;46911;32.650;-16.902;2022-10-22T05:52:43;3.83;;;0.38;;
61025;SDS011;46911;32.650;-16.902;2022-10-22T05:54:47;5.55;;;0.50;;
61025;SDS011;46911;32.650;-16.902;2022-10-22T05:56:54;13.52;;;0.65;;
61025;SDS011;46911;32.650;-16.902;2022-10-22T05:58:58;8.13;;;0.40;;
61025;SDS011;46911;32.650;-16.902;2022-10-22T06:01:00;7.32;;;0.50;;
61025;SDS011;46911;32.650;-16.902;2022-10-22T06:03:05;2.78;;;0.50;;
61025;SDS011;46911;32.650;-16.902;2022-10-22T06:05:06;6.00;;;0.60;;
61025;SDS011;46911;32.650;-16.902;2022-10-22T06:07:09;9.55;;;0.57;;
61025;SDS011;46911;32.650;-16.902;2022-10-22T06:09:16;8.02;;;0.60;;
61025;SDS011;46911;32.650;-16.902;2022-10-22T06:11:23;4.03;;;0.50;;
61025;SDS011;46911;32.650;-16.902;2022-10-22T06:13:29;4.18;;;0.50;;
61025;SDS011;46911;32.650;-16.902;2022-10-22T06:15:33;7.03;;;0.70;;
61025;SDS011;46911;32.650;-16.902;2022-10-22T06:17:34;2.55;;;0.55;;
61025;SDS011;46911;32.650;-16.902;2022-10-22T06:19:41;15.98;;;0.80;;
61025;SDS011;46911;32.650;-16.902;2022-10-22T06:21:42;3.65;;;0.88;;
61025;SDS011;46911;32.650;-16.902;2022-10-22T06:23:46;9.00;;;0.70;;
61025;SDS011;46911;32.650;-16.902;2022-10-22T06:25:56;7.45;;;0.60;;
61025;SDS011;46911;32.650;-16.902;2022-10-22T06:28:00;5.10;;;0.70;;
61025;SDS011;46911;32.650;-16.902;2022-10-22T06:30:02;2.67;;;0.65;;
61025;SDS011;46911;32.650;-16.902;2022-10-22T06:32:03;2.40;;;0.50;;
61025;SDS011;46911;32.650;-16.902;2022-10-22T06:34:12;4.70;;;0.68;;
61025;SDS011;46911;32.650;-16.902;2022-10-22T06:36:20;3.63;;;0.80;;
61025;SDS011;46911;32.650;-16.902;2022-10-22T06:38:22;4.40;;;0.70;;
61025;SDS011;46911;32.650;-16.902;2022-10-22T06:40:23;7.40;;;0.75;;
61025;SDS011;46911;32.650;-16.902;2022-10-22T06:42:26;10.20;;;0.82;;
61025;SDS011;46911;32.650;-16.902;2022-10-22T06:44:29;9.65;;;1.13;;
61025;SDS011;46911;32.650;-16.902;2022-10-22T06:46:37;6.85;;;0.80;;
61025;SDS011;46911;32.650;-16.902;2022-10-22T06:48:38;4.85;;;0.85;;
61025;SDS011;46911;32.650;-16.902;2022-10-22T06:50:39;3.08;;;0.70;;
61025;SDS011;46911;32.650;-16.902;2022-10-22T06:52:43;5.95;;;0.80;;
61025;SDS011;46911;32.650;-16.902;2022-10-22T06:54:46;7.38;;;0.68;;
61025;SDS011;46911;32.650;-16.902;2022-10-22T06:56:47;8.27;;;0.70;;
61025;SDS011;46911;32.650;-16.902;2022-10-22T06:58:51;5.93;;;1.00;;
61025;SDS011;46911;32.650;-16.902;2022-10-22T07:01:01;4.55;;;0.63;;
61025;SDS011;46911;32.650;-16.902;2022-10-22T07:03:03;5.63;;;0.85;;
61025;SDS011;46911;32.650;-16.902;2022-10-22T07:05:07;13.80;;;0.60;;
61025;SDS011;46911;32.650;-16.902;2022-10-22T07:07:13;8.52;;;1.10;;
61025;SDS011;46911;32.650;-16.902;2022-10-22T07:09:16;4.68;;;0.90;;
61025;SDS011;46911;32.650;-16.902;2022-10-22T07:11:23;7.07;;;0.70;;
61025;SDS011;46911;32.650;-16.902;2022-10-22T07:13:26;8.98;;;0.75;;
61025;SDS011;46911;32.650;-16.902;2022-10-22T07:15:26;2.78;;;0.68;;
61025;SDS011;46911;32.650;-16.902;2022-10-22T07:17:27;3.88;;;0.95;;
61025;SDS011;46911;32.650;-16.902;2022-10-22T07:19:28;4.07;;;0.88;;
61025;SDS011;46911;32.650;-16.902;2022-10-22T07:21:29;7.38;;;1.02;;
61025;SDS011;46911;32.650;-16.902;2022-10-22T07:23:33;4.68;;;0.68;;
61025;SDS011;46911;32.650;-16.902;2022-10-22T07:25:36;6.72;;;1.08;;
61025;SDS011;46911;32.650;-16.902;2022-10-22T07:27:37;6.35;;;0.90;;
61025;SDS011;46911;32.650;-16.902;2022-10-22T07:29:41;3.20;;;0.63;;
61025;SDS011;46911;32.650;-16.902;2022-10-22T07:31:42;6.72;;;1.13;;
61025;SDS011;46911;32.650;-16.902;2022-10-22T07:33:43;2.85;;;0.82;;
61025;SDS011;46911;32.650;-16.902;2022-10-22T07:35:44;8.57;;;0.80;;
61025;SDS011;46911;32.650;-16.902;2022-10-22T07:37:45;16.30;;;2.28;;
61025;SDS011;46911;32.650;-16.902;2022-10-22T07:39:48;32.10;;;5.90;;
61025;SDS011;46911;32.650;-16.902;2022-10-22T07:41:49;8.88;;;0.60;;
61025;SDS011;46911;32.650;-16.902;2022-10-22T07:43:55;10.45;;;0.80;;
61025;SDS011;46911;32.650;-16.902;2022-10-22T07:45:59;13.82;;;0.90;;
61025;SDS011;46911;32.650;-16.902;2022-10-22T07:48:08;10.20;;;0.80;;
61025;SDS011;46911;32.650;-16.902;2022-10-22T07:50:11;5.40;;;1.17;;
61025;SDS011;46911;32.650;-16.902;2022-10-22T07:52:16;7.22;;;0.77;;
61025;SDS011;46911;32.650;-16.902;2022-10-22T07:54:19;6.20;;;1.08;;
61025;SDS011;46911;32.650;-16.902;2022-10-22T07:56:22;6.00;;;1.02;;
61025;SDS011;46911;32.650;-16.902;2022-10-22T07:58:23;8.15;;;0.68;;
61025;SDS011;46911;32.650;-16.902;2022-10-22T08:00:24;3.72;;;0.82;;
61025;SDS011;46911;32.650;-16.902;2022-10-22T08:02:25;10.57;;;1.27;;
61025;SDS011;46911;32.650;-16.902;2022-10-22T08:04:28;5.80;;;0.80;;
61025;SDS011;46911;32.650;-16.902;2022-10-22T08:06:29;4.97;;;1.00;;
61025;SDS011;46911;32.650;-16.902;2022-10-22T08:08:30;9.07;;;1.45;;
61025;SDS011;46911;32.650;-16.902;2022-10-22T08:10:31;10.60;;;1.20;;
61025;SDS011;46911;32.650;-16.902;2022-10-22T08:12:35;13.82;;;1.50;;
61025;SDS011;46911;32.650;-16.902;2022-10-22T08:14:39;7.00;;;0.98;;
61025;SDS011;46911;32.650;-16.902;2022-10-22T08:16:40;3.10;;;0.82;;
61025;SDS011;46911;32.650;-16.902;2022-10-22T08:18:41;7.47;;;1.02;;
61025;SDS011;46911;32.650;-16.902;2022-10-22T08:20:42;8.05;;;0.98;;
61025;SDS011;46911;32.650;-16.902;2022-10-22T08:22:43;12.02;;;1.25;;
61025;SDS011;46911;32.650;-16.902;2022-10-22T08:24:44;8.65;;;1.42;;
61025;SDS011;46911;32.650;-16.902;2022-10-22T08:26:49;8.20;;;1.10;;
61025;SDS011;46911;32.650;-16.902;2022-10-22T08:28:51;6.40;;;0.68;;
61025;SDS011;46911;32.650;-16.902;2022-10-22T08:30:52;6.75;;;1.00;;
61025;SDS011;46911;32.650;-16.902;2022-10-22T08:32:55;7.20;;;0.73;;
61025;SDS011;46911;32.650;-16.902;2022-10-22T08:34:58;9.57;;;1.20;;
61025;SDS011;46911;32.650;-16.902;2022-10-22T08:37:01;3.25;;;0.80;;
61025;SDS011;46911;32.650;-16.902;2022-10-22T08:39:04;2.45;;;0.70;;
61025;SDS011;46911;32.650;-16.902;2022-10-22T08:41:12;10.40;;;1.05;;
61025;SDS011;46911;32.650;-16.902;2022-10-22T08:50:01;9.40;;;1.02;;
61025;SDS011;46911;32.650;-16.902;2022-10-22T08:52:03;2.78;;;0.73;;
61025;SDS011;46911;32.650;-16.902;2022-10-22T08:56:47;7.55;;;1.00;;
61025;SDS011;46911;32.650;-16.902;2022-10-22T09:01:08;3.67;;;0.75;;
61025;SDS011;46911;32.650;-16.902;2022-10-22T09:07:50;7.22;;;1.05;;
61025;SDS011;46911;32.650;-16.902;2022-10-22T09:09:52;13.35;;;1.38;;
61025;SDS011;46911;32.650;-16.902;2022-10-22T09:11:57;12.35;;;1.20;;
61025;SDS011;46911;32.650;-16.902;2022-10-22T09:14:03;7.30;;;1.25;;
61025;SDS011;46911;32.650;-16.902;2022-10-22T09:18:25;9.60;;;1.38;;
61025;SDS011;46911;32.650;-16.902;2022-10-22T09:20:47;5.70;;;1.13;;
61025;SDS011;46911;32.650;-16.902;2022-10-22T09:27:20;8.30;;;1.48;;
61025;SDS011;46911;32.650;-16.902;2022-10-22T09:29:30;7.80;;;1.58;;
61025;SDS011;46911;32.650;-16.902;2022-10-22T09:31:37;6.10;;;1.77;;
61025;SDS011;46911;32.650;-16.902;2022-10-22T09:33:38;6.80;;;1.77;;
61025;SDS011;46911;32.650;-16.902;2022-10-22T09:35:47;6.80;;;1.50;;
61025;SDS011;46911;32.650;-16.902;2022-10-22T09:37:55;8.38;;;1.52;;
61025;SDS011;46911;32.650;-16.902;2022-10-22T09:39:56;7.13;;;1.35;;
61025;SDS011;46911;32.650;-16.902;2022-10-22T09:42:03;5.22;;;1.40;;
61025;SDS011;46911;32.650;-16.902;2022-10-22T09:44:05;10.82;;;2.13;;
61025;SDS011;46911;32.650;-16.902;2022-10-22T09:46:07;7.88;;;1.90;;
61025;SDS011;46911;32.650;-16.902;2022-10-22T09:48:20;5.90;;;1.60;;
61025;SDS011;46911;32.650;-16.902;2022-10-22T09:50:28;15.38;;;1.75;;
61025;SDS011;46911;32.650;-16.902;2022-10-22T09:52:35;6.03;;;1.92;;
61025;SDS011;46911;32.650;-16.902;2022-10-22T09:54:37;5.00;;;1.55;;
61025;SDS011;46911;32.650;-16.902;2022-10-22T09:56:47;5.50;;;1.15;;
61025;SDS011;46911;32.650;-16.902;2022-10-22T09:58:55;4.78;;;1.10;;
61025;SDS011;46911;32.650;-16.902;2022-10-22T10:00:58;7.10;;;0.77;;
61025;SDS011;46911;32.650;-16.902;2022-10-22T10:03:00;4.57;;;1.25;;
61025;SDS011;46911;32.650;-16.902;2022-10-22T10:05:01;2.63;;;0.90;;
61025;SDS011;46911;32.650;-16.902;2022-10-22T10:07:14;5.25;;;0.95;;
61025;SDS011;46911;32.650;-16.902;2022-10-22T10:09:23;2.50;;;0.65;;
61025;SDS011;46911;32.650;-16.902;2022-10-22T10:15:44;2.25;;;0.63;;
61025;SDS011;46911;32.650;-16.902;2022-10-22T10:22:44;3.17;;;0.93;;
61025;SDS011;46911;32.650;-16.902;2022-10-22T10:25:12;2.92;;;0.82;;
61025;SDS011;46911;32.650;-16.902;2022-10-22T10:36:28;10.00;;;1.58;;
61025;SDS011;46911;32.650;-16.902;2022-10-22T10:38:52;12.68;;;1.77;;
61025;SDS011;46911;32.650;-16.902;2022-10-22T10:50:23;11.43;;;2.15;;
61025;SDS011;46911;32.650;-16.902;2022-10-22T10:52:36;8.45;;;1.70;;
61025;SDS011;46911;32.650;-16.902;2022-10-22T10:55:00;7.85;;;2.17;;
61025;SDS011;46911;32.650;-16.902;2022-10-22T11:02:14;9.00;;;1.70;;
61025;SDS011;46911;32.650;-16.902;2022-10-22T11:06:43;6.13;;;1.45;;
61025;SDS011;46911;32.650;-16.902;2022-10-22T11:11:39;13.35;;;1.88;;
61025;SDS011;46911;32.650;-16.902;2022-10-22T11:13:57;6.70;;;1.70;;
61025;SDS011;46911;32.650;-16.902;2022-10-22T11:16:02;10.57;;;1.70;;
61025;SDS011;46911;32.650;-16.902;2022-10-22T11:23:13;4.43;;;1.42;;
61025;SDS011;46911;32.650;-16.902;2022-10-22T11:25:22;7.57;;;1.75;;
61025;SDS011;46911;32.650;-16.902;2022-10-22T11:29:39;10.65;;;2.13;;
61025;SDS011;46911;32.650;-16.902;2022-10-22T11:31:44;8.82;;;1.50;;
61025;SDS011;46911;32.650;-16.902;2022-10-22T11:33:53;13.60;;;2.05;;
61025;SDS011;46911;32.650;-16.902;2022-10-22T11:36:05;7.30;;;1.40;;
61025;SDS011;46911;32.650;-16.902;2022-10-22T11:38:09;3.83;;;1.15;;
61025;SDS011;46911;32.650;-16.902;2022-10-22T11:40:20;4.93;;;1.23;;
61025;SDS011;46911;32.650;-16.902;2022-10-22T11:42:34;11.15;;;1.77;;
61025;SDS011;46911;32.650;-16.902;2022-10-22T11:53:40;5.55;;;1.40;;
61025;SDS011;46911;32.650;-16.902;2022-10-22T11:55:47;13.07;;;2.70;;
61025;SDS011;46911;32.650;-16.902;2022-10-22T11:57:56;8.55;;;2.33;;
61025;SDS011;46911;32.650;-16.902;2022-10-22T11:59:59;12.80;;;2.53;;
61025;SDS011;46911;32.650;-16.902;2022-10-22T12:02:19;8.80;;;2.22;;
61025;SDS011;46911;32.650;-16.902;2022-10-22T12:04:39;5.07;;;1.42;;
61025;SDS011;46911;32.650;-16.902;2022-10-22T12:09:00;10.35;;;2.10;;
61025;SDS011;46911;32.650;-16.902;2022-10-22T12:13:12;9.50;;;1.67;;
61025;SDS011;46911;32.650;-16.902;2022-10-22T12:15:27;8.07;;;1.60;;
61025;SDS011;46911;32.650;-16.902;2022-10-22T12:17:28;6.70;;;2.05;;
61025;SDS011;46911;32.650;-16.902;2022-10-22T12:19:36;10.35;;;2.20;;
61025;SDS011;46911;32.650;-16.902;2022-10-22T12:21:41;9.23;;;1.55;;
61025;SDS011;46911;32.650;-16.902;2022-10-22T12:23:47;11.45;;;1.92;;
61025;SDS011;46911;32.650;-16.902;2022-10-22T12:25:50;6.60;;;1.30;;
61025;SDS011;46911;32.650;-16.902;2022-10-22T12:27:55;5.70;;;1.65;;
61025;SDS011;46911;32.650;-16.902;2022-10-22T12:30:00;11.50;;;1.85;;
61025;SDS011;46911;32.650;-16.902;2022-10-22T12:32:09;5.00;;;1.52;;
61025;SDS011;46911;32.650;-16.902;2022-10-22T12:34:17;7.38;;;1.55;;
61025;SDS011;46911;32.650;-16.902;2022-10-22T12:36:28;15.68;;;2.35;;
61025;SDS011;46911;32.650;-16.902;2022-10-22T12:38:31;8.07;;;1.70;;
61025;SDS011;46911;32.650;-16.902;2022-10-22T12:40:34;6.05;;;1.40;;
61025;SDS011;46911;32.650;-16.902;2022-10-22T12:42:35;8.55;;;2.25;;
61025;SDS011;46911;32.650;-16.902;2022-10-22T12:44:40;11.35;;;2.55;;
61025;SDS011;46911;32.650;-16.902;2022-10-22T12:46:43;17.38;;;2.17;;
61025;SDS011;46911;32.650;-16.902;2022-10-22T12:48:48;9.60;;;1.63;;
61025;SDS011;46911;32.650;-16.902;2022-10-22T12:50:52;7.05;;;2.28;;
61025;SDS011;46911;32.650;-16.902;2022-10-22T12:52:59;12.10;;;2.15;;
61025;SDS011;46911;32.650;-16.902;2022-10-22T12:55:02;10.25;;;2.03;;
61025;SDS011;46911;32.650;-16.902;2022-10-22T12:57:15;4.57;;;1.42;;
61025;SDS011;46911;32.650;-16.902;2022-10-22T13:01:28;10.57;;;1.60;;
61025;SDS011;46911;32.650;-16.902;2022-10-22T13:03:34;9.73;;;2.35;;
61025;SDS011;46911;32.650;-16.902;2022-10-22T13:05:39;8.38;;;1.80;;
61025;SDS011;46911;32.650;-16.902;2022-10-22T13:07:41;5.03;;;1.10;;
61025;SDS011;46911;32.650;-16.902;2022-10-22T13:09:57;5.18;;;1.27;;
61025;SDS011;46911;32.650;-16.902;2022-10-22T13:12:04;16.02;;;1.58;;
61025;SDS011;46911;32.650;-16.902;2022-10-22T13:14:20;8.30;;;1.90;;
61025;SDS011;46911;32.650;-16.902;2022-10-22T13:16:27;11.25;;;1.98;;
61025;SDS011;46911;32.650;-16.902;2022-10-22T13:18:31;9.35;;;1.73;;
61025;SDS011;46911;32.650;-16.902;2022-10-22T13:20:32;8.82;;;2.05;;
61025;SDS011;46911;32.650;-16.902;2022-10-22T13:22:37;3.88;;;1.23;;
61025;SDS011;46911;32.650;-16.902;2022-10-22T13:24:47;8.88;;;1.27;;
61025;SDS011;46911;32.650;-16.902;2022-10-22T13:26:50;9.32;;;1.48;;
61025;SDS011;46911;32.650;-16.902;2022-10-22T13:28:53;14.15;;;1.65;;
61025;SDS011;46911;32.650;-16.902;2022-10-22T13:31:01;7.18;;;2.33;;
61025;SDS011;46911;32.650;-16.902;2022-10-22T13:33:22;9.32;;;2.05;;
61025;SDS011;46911;32.650;-16.902;2022-10-22T13:35:26;14.95;;;2.20;;
61025;SDS011;46911;32.650;-16.902;2022-10-22T13:37:31;8.95;;;2.25;;
61025;SDS011;46911;32.650;-16.902;2022-10-22T13:39:40;6.30;;;1.70;;
61025;SDS011;46911;32.650;-16.902;2022-10-22T13:41:43;8.93;;;1.95;;
61025;SDS011;46911;32.650;-16.902;2022-10-22T13:43:46;8.55;;;1.38;;
61025;SDS011;46911;32.650;-16.902;2022-10-22T13:46:07;10.15;;;2.17;;
61025;SDS011;46911;32.650;-16.902;2022-10-22T13:48:12;12.00;;;2.17;;
61025;SDS011;46911;32.650;-16.902;2022-10-22T13:50:16;11.02;;;2.17;;
61025;SDS011;46911;32.650;-16.902;2022-10-22T13:52:23;5.18;;;1.33;;
61025;SDS011;46911;32.650;-16.902;2022-10-22T13:54:31;10.13;;;2.25;;
61025;SDS011;46911;32.650;-16.902;2022-10-22T13:56:33;18.10;;;1.95;;
61025;SDS011;46911;32.650;-16.902;2022-10-22T13:58:36;6.90;;;1.38;;
61025;SDS011;46911;32.650;-16.902;2022-10-22T14:00:37;11.00;;;1.50;;
61025;SDS011;46911;32.650;-16.902;2022-10-22T14:02:40;7.57;;;1.50;;